Time;durP1;ratioP1;P1;durP2;ratioP2;P2;SDS_P1;SDS_P2;PMS_P1;PMS_P2;Temp;Humidity;BMP_temperature;BMP_pressure;BME280_temperature;BME280_humidity;BME280_pressure;Samples;Min_cycle;Max_cycle;Signal;HPM_P1;HPM_P2
2021/04/05 00:02:13;;;;;;;9.13;3.90;;;;;;;3.29;56.12;95412.66;5011064;28;20545;-72
2021/04/05 00:04:38;;;;;;;9.23;4.57;;;;;;;3.24;56.63;95416.47;5010636;28;20210;-72
2021/04/05 00:07:03;;;;;;;9.57;3.60;;;;;;;3.20;56.51;95422.75;5010552;28;20253;-72
2021/04/05 00:09:29;;;;;;;5.10;3.63;;;;;;;3.17;56.70;95418.63;5010965;28;20222;-72
2021/04/05 00:11:54;;;;;;;10.47;4.13;;;;;;;3.09;56.95;95408.91;5027309;28;20221;-72
2021/04/05 00:14:20;;;;;;;9.07;3.60;;;;;;;3.08;56.87;95407.25;5010643;28;20191;-72
2021/04/05 00:16:46;;;;;;;8.07;4.10;;;;;;;3.00;57.47;95404.38;5010916;28;20227;-72
2021/04/05 00:19:11;;;;;;;10.00;4.27;;;;;;;3.01;57.15;95394.97;5010948;28;20534;-72
2021/04/05 00:21:37;;;;;;;8.47;4.30;;;;;;;2.98;57.48;95385.72;5010710;28;20179;-72
2021/04/05 00:24:02;;;;;;;9.30;4.40;;;;;;;2.96;57.65;95386.75;5010603;28;20199;-72
2021/04/05 00:26:27;;;;;;;6.73;4.23;;;;;;;2.84;57.82;95388.44;5010528;28;20213;-72
2021/04/05 00:28:52;;;;;;;8.70;4.50;;;;;;;2.78;57.99;95399.09;5011983;28;20727;-72
2021/04/05 00:31:18;;;;;;;8.00;4.70;;;;;;;2.72;58.48;95397.75;5011848;28;20675;-72
2021/04/05 00:33:44;;;;;;;11.27;4.70;;;;;;;2.63;59.29;95395.00;5010580;28;20196;-72
2021/04/05 00:36:09;;;;;;;8.77;4.57;;;;;;;2.75;59.18;95399.31;5010203;28;20173;-72
2021/04/05 00:38:35;;;;;;;10.93;4.47;;;;;;;2.81;59.03;95399.69;4994414;28;20187;-72
2021/04/05 00:41:12;;;;;;;7.63;5.03;;;;;;;2.83;59.12;95386.78;5010666;28;20515;-72
2021/04/05 00:43:39;;;;;;;10.23;4.90;;;;;;;2.88;59.01;95379.59;5010479;28;20208;-73
2021/04/05 00:46:06;;;;;;;13.10;5.90;;;;;;;2.82;59.26;95372.31;4993704;28;20199;-72
2021/04/05 00:48:32;;;;;;;8.50;5.30;;;;;;;2.87;59.40;95362.56;5026690;28;20310;-72
2021/04/05 00:51:01;;;;;;;13.30;5.73;;;;;;;2.82;59.21;95359.47;5010429;28;20262;-72
2021/04/05 00:53:35;;;;;;;13.57;7.03;;;;;;;2.78;59.43;95355.50;5026745;28;20217;-72
2021/04/05 00:56:01;;;;;;;8.83;5.20;;;;;;;2.75;59.59;95351.41;5022509;28;20221;-72
2021/04/05 00:58:26;;;;;;;15.40;6.00;;;;;;;2.70;60.09;95356.03;5046754;28;20208;-72
2021/04/05 01:01:00;;;;;;;13.17;6.73;;;;;;;2.66;60.30;95346.91;5046730;28;20586;-72
2021/04/05 01:03:26;;;;;;;12.40;5.33;;;;;;;2.74;60.13;95333.53;5033756;28;20194;-72
2021/04/05 01:05:53;;;;;;;10.67;5.07;;;;;;;2.69;60.04;95333.06;5050224;28;20194;-72
2021/04/05 01:08:18;;;;;;;16.53;5.37;;;;;;;2.71;60.21;95328.63;5033808;28;20179;-72
2021/04/05 01:10:44;;;;;;;10.13;6.03;;;;;;;2.69;60.15;95322.81;5035216;28;20665;-72
2021/04/05 01:13:10;;;;;;;11.80;5.73;;;;;;;2.60;60.12;95323.44;5033547;28;20657;-72
2021/04/05 01:15:35;;;;;;;12.00;5.50;;;;;;;2.58;60.46;95326.09;5050197;28;20176;-72
2021/04/05 01:18:00;;;;;;;10.30;5.40;;;;;;;2.63;60.46;95324.03;5050457;28;20170;-72
2021/04/05 01:20:26;;;;;;;12.83;5.60;;;;;;;2.63;60.23;95318.09;5035127;28;20178;-72
2021/04/05 01:22:52;;;;;;;13.57;5.33;;;;;;;2.54;60.61;95315.22;5050361;28;20277;-72
2021/04/05 01:25:19;;;;;;;11.90;5.70;;;;;;;2.53;60.47;95320.47;5034624;28;20577;-72
2021/04/05 01:27:45;;;;;;;13.03;5.87;;;;;;;2.54;60.58;95315.22;5034706;28;20613;-72
2021/04/05 01:30:33;;;;;;;12.67;6.20;;;;;;;2.55;60.92;95298.91;5033537;28;20183;-72
2021/04/05 01:33:03;;;;;;;10.90;5.80;;;;;;;2.57;60.94;95287.75;5034861;28;20208;-72
2021/04/05 01:35:29;;;;;;;12.43;6.00;;;;;;;2.62;60.83;95281.38;5033268;28;20176;-72
2021/04/05 01:37:54;;;;;;;14.30;7.03;;;;;;;2.63;60.73;95292.44;5034789;28;20176;-72
2021/04/05 01:40:20;;;;;;;14.80;6.27;;;;;;;2.58;60.96;95281.72;5033274;28;20700;-72
2021/04/05 01:42:45;;;;;;;15.60;6.47;;;;;;;2.60;60.75;95287.53;5050145;28;20218;-72
2021/04/05 01:45:11;;;;;;;12.07;6.40;;;;;;;2.59;61.51;95278.22;5033013;28;20288;-72
2021/04/05 01:47:36;;;;;;;14.40;6.37;;;;;;;2.56;61.32;95276.66;5033410;28;20200;-72
2021/04/05 01:50:04;;;;;;;16.07;6.00;;;;;;;2.51;61.45;95271.88;5050005;28;20182;-72
2021/04/05 01:52:30;;;;;;;14.63;5.90;;;;;;;2.46;61.35;95266.22;5049617;28;20267;-72
2021/04/05 01:55:00;;;;;;;9.63;6.40;;;;;;;2.59;61.58;95257.72;5049520;28;20202;-72
2021/04/05 01:57:26;;;;;;;15.07;6.67;;;;;;;2.48;61.59;95237.94;5034407;28;20188;-72
2021/04/05 01:59:51;;;;;;;12.33;6.43;;;;;;;2.49;61.54;95234.47;5049642;28;20171;-72
2021/04/05 02:02:16;;;;;;;15.40;6.30;;;;;;;2.50;61.58;95228.41;5034644;28;20174;-72
2021/04/05 02:04:42;;;;;;;11.67;6.13;;;;;;;2.45;61.85;95215.06;5032548;28;20605;-72
2021/04/05 02:07:07;;;;;;;15.57;6.40;;;;;;;2.58;61.76;95208.19;5049173;28;20284;-72
2021/04/05 02:09:33;;;;;;;14.27;5.87;;;;;;;2.58;61.78;95202.25;5049481;28;20203;-72
2021/04/05 02:11:58;;;;;;;10.10;5.87;;;;;;;2.56;61.59;95212.56;5033905;28;20214;-72
2021/04/05 02:14:24;;;;;;;15.30;6.50;;;;;;;2.51;61.80;95207.78;5047965;28;20261;-72
2021/04/05 02:16:49;;;;;;;13.53;5.93;;;;;;;2.49;61.59;95211.38;5049361;28;20168;-72
2021/04/05 02:19:15;;;;;;;15.07;7.33;;;;;;;2.58;61.93;95210.75;5033969;28;20224;-72
2021/04/05 02:21:46;;;;;;;17.63;6.43;;;;;;;2.63;62.00;95202.72;5034289;28;20214;-72
2021/04/05 02:24:13;;;;;;;18.87;7.33;;;;;;;2.59;61.82;95209.00;5049296;28;20285;-72
2021/04/05 02:26:38;;;;;;;13.53;6.17;;;;;;;2.50;62.21;95206.16;5032503;28;20198;-72
2021/04/05 02:29:05;;;;;;;15.17;6.87;;;;;;;2.43;62.15;95212.63;5049207;28;20229;-72
2021/04/05 02:31:31;;;;;;;13.50;6.43;;;;;;;2.33;61.93;95208.25;5049331;28;20659;-72
2021/04/05 02:33:58;;;;;;;14.80;7.03;;;;;;;2.31;62.85;95199.84;5049052;28;20195;-72
2021/04/05 02:36:26;;;;;;;12.43;6.20;;;;;;;2.33;62.84;95201.38;5032240;28;20170;-72
2021/04/05 02:38:54;;;;;;;14.67;7.23;;;;;;;2.29;62.63;95197.38;5032650;28;20706;-72
2021/04/05 02:41:20;;;;;;;13.73;6.30;;;;;;;2.22;62.91;95185.94;5032523;28;20581;-72
2021/04/05 02:43:46;;;;;;;16.37;6.27;;;;;;;2.18;62.67;95184.50;5032117;28;20199;-72
2021/04/05 02:46:16;;;;;;;12.93;5.97;;;;;;;2.09;63.00;95195.38;5048588;28;20227;-72
2021/04/05 02:48:47;;;;;;;12.03;5.53;;;;;;;2.08;63.22;95184.31;5032304;28;20320;-72
2021/04/05 02:51:12;;;;;;;9.70;6.23;;;;;;;2.10;63.13;95172.22;5033367;28;20324;-72
2021/04/05 02:53:50;;;;;;;15.50;6.90;;;;;;;2.06;63.31;95169.97;5048856;28;20721;-72
2021/04/05 02:56:16;;;;;;;14.43;6.03;;;;;;;2.01;63.36;95177.13;5048564;28;20598;-72
2021/04/05 02:58:44;;;;;;;14.37;6.40;;;;;;;1.95;63.53;95176.66;5031920;28;20273;-72
2021/04/05 03:01:10;;;;;;;14.67;6.03;;;;;;;1.93;63.45;95169.97;5048414;28;20166;-72
2021/04/05 03:03:38;;;;;;;12.10;7.10;;;;;;;1.88;63.94;95172.88;5031897;28;20194;-73
2021/04/05 03:06:04;;;;;;;9.57;5.70;;;;;;;1.91;64.21;95166.72;5047987;28;20247;-72
2021/04/05 03:08:30;;;;;;;14.77;6.27;;;;;;;1.91;64.24;95161.59;5048411;28;20184;-73
2021/04/05 03:10:56;;;;;;;11.77;6.20;;;;;;;1.87;63.80;95157.63;5031636;28;20181;-73
2021/04/05 03:13:24;;;;;;;10.17;6.67;;;;;;;1.86;63.83;95141.44;5047962;28;20694;-72
2021/04/05 03:15:49;;;;;;;11.17;6.30;;;;;;;1.92;63.90;95133.31;5031430;28;20170;-72
2021/04/05 03:18:15;;;;;;;13.03;5.90;;;;;;;1.99;63.93;95123.47;5032741;28;20170;-72
2021/04/05 03:20:41;;;;;;;12.43;5.70;;;;;;;2.12;63.36;95118.31;5048152;28;20661;-72
2021/04/05 03:23:06;;;;;;;12.60;6.13;;;;;;;2.15;63.36;95107.88;5032716;28;20195;-72
2021/04/05 03:25:32;;;;;;;16.90;6.93;;;;;;;2.19;63.54;95104.97;5047363;28;20670;-72
2021/04/05 03:27:57;;;;;;;10.93;6.23;;;;;;;2.18;63.38;95099.94;5032611;28;20206;-72
2021/04/05 03:30:38;;;;;;;14.80;6.17;;;;;;;2.27;63.43;95094.19;5047988;28;20693;-72
2021/04/05 03:33:12;;;;;;;14.13;6.30;;;;;;;2.43;63.05;95101.59;5031270;28;20202;-72
2021/04/05 03:35:41;;;;;;;14.50;7.07;;;;;;;2.43;63.44;95102.41;5047667;28;20252;-72
2021/04/05 03:38:09;;;;;;;15.70;6.90;;;;;;;2.59;63.07;95091.91;5047728;28;20184;-71
2021/04/05 03:40:35;;;;;;;16.27;6.87;;;;;;;2.68;63.04;95098.09;5032356;28;20669;-71
2021/04/05 03:43:08;;;;;;;13.53;6.50;;;;;;;2.63;63.04;95092.47;5030994;28;20198;-71
2021/04/05 03:45:43;;;;;;;12.57;6.60;;;;;;;2.67;62.79;95084.47;5014557;28;20679;-71
2021/04/05 03:48:16;;;;;;;16.27;6.87;;;;;;;2.75;62.79;95083.94;5047721;28;20182;-73
2021/04/05 03:50:47;;;;;;;17.77;7.23;;;;;;;2.88;62.29;95071.81;5047559;28;20638;-73
2021/04/05 03:53:25;;;;;;;16.93;7.13;;;;;;;2.81;62.59;95066.31;5047600;28;20298;-71
2021/04/05 03:55:56;;;;;;;17.33;7.83;;;;;;;2.87;62.61;95071.94;5047253;28;20195;-71
2021/04/05 03:58:22;;;;;;;10.73;6.33;;;;;;;2.90;62.45;95069.97;5047538;28;20550;-71
2021/04/05 04:00:47;;;;;;;14.27;7.03;;;;;;;2.95;62.14;95070.44;5047426;28;20171;-71
2021/04/05 04:03:17;;;;;;;14.80;7.70;;;;;;;2.98;62.05;95064.28;5047193;28;20198;-71
2021/04/05 04:05:56;;;;;;;15.07;6.90;;;;;;;2.91;61.89;95061.34;5046734;28;20297;-71
2021/04/05 04:08:28;;;;;;;16.63;6.90;;;;;;;2.99;61.73;95051.31;5045666;28;20178;-71
2021/04/05 04:10:58;;;;;;;18.00;7.30;;;;;;;3.11;61.46;95040.16;5046570;28;20550;-71
2021/04/05 04:13:24;;;;;;;16.67;7.33;;;;;;;3.17;61.75;95038.88;5046966;28;20693;-71
2021/04/05 04:15:51;;;;;;;14.13;6.80;;;;;;;3.10;61.74;95032.59;5013875;28;20180;-72
2021/04/05 04:18:20;;;;;;;13.40;6.67;;;;;;;3.03;61.92;95028.84;5047181;28;20202;-72
2021/04/05 04:20:46;;;;;;;16.47;7.80;;;;;;;3.17;61.72;95018.34;5047238;28;20273;-72
2021/04/05 04:23:12;;;;;;;15.23;6.90;;;;;;;3.05;61.99;95021.84;5047027;28;20459;-72
2021/04/05 04:25:38;;;;;;;16.73;7.90;;;;;;;2.97;62.50;95019.84;5046544;28;20202;-72
2021/04/05 04:28:04;;;;;;;19.27;8.07;;;;;;;3.06;62.49;95008.09;5030468;28;20263;-71
2021/04/05 04:30:33;;;;;;;15.73;7.63;;;;;;;2.98;62.54;95015.53;5031661;28;20533;-72
2021/04/05 04:33:02;;;;;;;12.47;6.77;;;;;;;2.97;62.61;95012.16;5046544;28;20211;-72
2021/04/05 04:35:29;;;;;;;12.47;7.30;;;;;;;2.97;62.55;94993.38;5029914;28;20182;-72
2021/04/05 04:37:55;;;;;;;14.87;7.30;;;;;;;3.05;62.56;94997.00;5046377;28;20269;-72
2021/04/05 04:40:24;;;;;;;14.47;7.00;;;;;;;3.01;62.40;94990.50;5031281;28;20619;-72
2021/04/05 04:42:50;;;;;;;17.00;6.90;;;;;;;3.13;61.96;94994.69;5046786;28;20236;-72
2021/04/05 04:45:17;;;;;;;16.73;7.03;;;;;;;3.22;61.82;94988.03;5046541;28;20285;-71
2021/04/05 04:47:43;;;;;;;15.10;6.80;;;;;;;3.36;61.39;94995.50;5031400;28;20233;-72
2021/04/05 04:50:08;;;;;;;13.03;6.53;;;;;;;3.35;61.38;94991.28;5031462;28;20659;-72
2021/04/05 04:52:34;;;;;;;13.53;6.47;;;;;;;3.55;60.43;94991.53;5031302;28;20266;-72
2021/04/05 04:54:59;;;;;;;12.33;6.57;;;;;;;3.45;61.42;94982.91;5046308;28;20209;-72
2021/04/05 04:57:24;;;;;;;12.47;6.37;;;;;;;3.60;60.65;94974.81;5031361;28;20182;-72
2021/04/05 04:59:50;;;;;;;15.87;6.97;;;;;;;3.54;61.09;94979.63;5046812;28;20558;-72
2021/04/05 05:02:15;;;;;;;15.00;6.77;;;;;;;3.64;60.66;94983.94;5046730;28;20179;-72
2021/04/05 05:04:41;;;;;;;12.50;6.77;;;;;;;3.54;60.63;94970.19;5030968;28;20215;-72
2021/04/05 05:07:07;;;;;;;14.97;7.70;;;;;;;3.57;60.73;94959.66;5046114;28;20194;-72
2021/04/05 05:09:33;;;;;;;12.33;6.60;;;;;;;3.47;60.95;94961.31;5046625;28;20186;-72
2021/04/05 05:11:58;;;;;;;16.93;6.40;;;;;;;3.51;61.32;94947.28;5046488;28;20190;-72
2021/04/05 05:14:23;;;;;;;14.63;6.97;;;;;;;3.47;61.42;94945.91;5046371;28;20252;-72
2021/04/05 05:16:50;;;;;;;14.60;7.20;;;;;;;3.45;61.40;94947.78;5031288;28;20177;-71
2021/04/05 05:19:15;;;;;;;14.60;6.73;;;;;;;3.52;61.00;94937.84;5046656;28;20182;-72
2021/04/05 05:21:50;;;;;;;11.07;6.13;;;;;;;3.54;60.92;94952.22;5046489;28;20441;-72
2021/04/05 05:24:19;;;;;;;15.70;6.87;;;;;;;3.63;60.41;94940.41;5029759;28;20202;-71
2021/04/05 05:26:44;;;;;;;12.03;6.07;;;;;;;3.68;60.33;94936.53;5029942;28;20213;-71
2021/04/05 05:29:13;;;;;;;12.90;7.47;;;;;;;3.83;60.23;94937.06;5029801;28;20270;-71
2021/04/05 05:31:40;;;;;;;15.20;6.83;;;;;;;3.90;59.13;94927.94;5029709;28;20245;-71
2021/04/05 05:34:09;;;;;;;12.87;7.20;;;;;;;3.96;59.26;94930.00;5030683;28;20190;-71
2021/04/05 05:36:36;;;;;;;16.33;6.07;;;;;;;3.98;59.22;94920.44;5029500;28;20236;-71
2021/04/05 05:39:01;;;;;;;12.60;6.93;;;;;;;4.05;58.74;94918.19;5029630;28;20224;-71
2021/04/05 05:41:35;;;;;;;14.63;7.37;;;;;;;4.08;58.60;94912.81;5029597;28;20178;-71
2021/04/05 05:44:25;;;;;;;11.47;6.80;;;;;;;4.15;58.72;94906.25;5030856;28;20201;-71
2021/04/05 05:46:56;;;;;;;15.63;6.80;;;;;;;4.15;58.76;94895.97;5024559;28;20257;-71
2021/04/05 05:49:33;;;;;;;16.93;7.20;;;;;;;4.22;58.23;94898.84;5049640;28;20186;-71
2021/04/05 05:52:02;;;;;;;11.90;5.97;;;;;;;4.23;58.38;94888.44;5050014;28;20182;-71
2021/04/05 05:54:50;;;;;;;13.33;6.33;;;;;;;4.26;57.89;94895.91;5032793;28;20296;-71
2021/04/05 05:57:30;;;;;;;13.93;6.97;;;;;;;4.32;57.79;94901.47;5033417;28;20178;-71
2021/04/05 06:00:07;;;;;;;17.37;9.10;;;;;;;4.35;57.51;94901.25;5049687;28;20178;-71
2021/04/05 06:02:48;;;;;;;16.27;6.50;;;;;;;4.38;57.39;94911.25;5049430;28;20265;-71
2021/04/05 06:05:37;;;;;;;15.83;7.33;;;;;;;4.48;57.10;94902.66;5032201;28;20268;-71
2021/04/05 06:08:26;;;;;;;14.50;6.90;;;;;;;4.58;56.52;94912.19;5049507;28;20701;-71
2021/04/05 06:10:57;;;;;;;14.73;7.03;;;;;;;4.59;56.48;94901.78;5029987;28;20195;-72
2021/04/05 06:13:49;;;;;;;20.60;11.43;;;;;;;4.68;56.34;94882.19;5034161;28;20215;-71
2021/04/05 06:16:33;;;;;;;12.07;7.03;;;;;;;4.72;56.13;94876.69;5049222;28;20192;-71
2021/04/05 06:18:58;;;;;;;13.70;7.27;;;;;;;4.79;56.22;94880.38;5033990;28;20285;-71
2021/04/05 06:21:58;;;;;;;13.73;7.63;;;;;;;4.84;55.92;94875.63;5033814;28;20220;-71
2021/04/05 06:24:43;;;;;;;13.60;6.70;;;;;;;5.07;55.45;94872.91;5032292;28;20218;-72
2021/04/05 06:27:13;;;;;;;15.53;7.07;;;;;;;5.16;55.33;94879.81;5033729;28;20281;-72
2021/04/05 06:29:54;;;;;;;11.70;6.47;;;;;;;5.28;54.75;94872.81;5032565;28;20182;-72
2021/04/05 06:32:35;;;;;;;16.07;6.70;;;;;;;5.40;54.88;94875.16;5033835;28;20178;-72
2021/04/05 06:35:26;;;;;;;16.63;6.37;;;;;;;5.52;54.52;94865.53;5048985;28;20720;-71
2021/04/05 06:37:57;;;;;;;13.50;6.17;;;;;;;5.59;54.37;94863.25;5032240;28;20266;-72
2021/04/05 06:40:25;;;;;;;15.87;6.30;;;;;;;5.61;54.25;94856.19;5048805;28;20639;-72
2021/04/05 06:43:05;;;;;;;13.87;6.53;;;;;;;5.68;54.15;94852.16;5032184;28;20199;-72
2021/04/05 06:45:51;;;;;;;16.90;7.20;;;;;;;5.70;54.04;94845.09;5033152;28;20662;-72
2021/04/05 06:48:44;;;;;;;17.60;7.53;;;;;;;5.89;54.10;94847.66;5033894;28;20210;-72
2021/04/05 06:51:37;;;;;;;13.50;6.93;;;;;;;6.04;53.52;94853.25;5033376;28;20257;-72
2021/04/05 06:54:30;;;;;;;13.50;7.03;;;;;;;6.22;53.44;94846.47;5033258;28;20205;-72
2021/04/05 06:57:05;;;;;;;14.83;6.53;;;;;;;6.30;52.70;94842.38;5032572;28;20167;-71
2021/04/05 06:59:55;;;;;;;16.07;6.30;;;;;;;6.52;52.49;94848.00;5048133;28;20528;-71
2021/04/05 07:02:20;;;;;;;14.23;6.17;;;;;;;6.61;52.02;94853.28;5033493;28;20174;-71
2021/04/05 07:04:59;;;;;;;12.53;6.67;;;;;;;6.72;52.22;94848.78;5032815;28;20256;-72
2021/04/05 07:07:46;;;;;;;18.00;6.37;;;;;;;6.66;51.91;94846.75;5033240;28;20273;-72
2021/04/05 07:10:21;;;;;;;15.83;6.10;;;;;;;6.91;50.77;94853.06;5033142;28;20266;-71
2021/04/05 07:12:49;;;;;;;13.57;6.67;;;;;;;7.00;51.06;94851.41;5031637;28;20218;-71
2021/04/05 07:15:45;;;;;;;15.27;6.93;;;;;;;7.01;50.99;94840.94;5032653;28;20270;-71
2021/04/05 07:18:44;;;;;;;14.70;7.30;;;;;;;7.19;50.45;94835.81;5031598;28;20206;-71
2021/04/05 07:21:27;;;;;;;11.93;6.40;;;;;;;7.23;50.71;94838.91;5028284;28;20277;-71
2021/04/05 07:24:08;;;;;;;13.27;6.67;;;;;;;7.16;50.76;94838.69;5022995;28;20214;-71
2021/04/05 07:26:51;;;;;;;17.60;7.00;;;;;;;7.33;50.38;94839.66;5015755;28;20214;-71
2021/04/05 07:29:51;;;;;;;13.30;7.07;;;;;;;7.50;49.93;94827.72;5022734;28;20277;-71
2021/04/05 07:32:34;;;;;;;18.10;7.10;;;;;;;7.51;49.82;94840.53;5032415;28;20177;-70
2021/04/05 07:35:19;;;;;;;14.40;7.13;;;;;;;7.69;49.82;94837.16;5032256;28;20174;-71
2021/04/05 07:38:05;;;;;;;15.97;7.00;;;;;;;7.73;49.12;94844.44;5019006;28;20187;-71
2021/04/05 07:40:52;;;;;;;13.07;6.87;;;;;;;7.72;49.09;94842.81;5005758;28;20541;-71
2021/04/05 07:43:27;;;;;;;22.93;8.37;;;;;;;7.83;49.37;94847.75;5044395;28;20226;-71
2021/04/05 07:46:06;;;;;;;17.03;7.47;;;;;;;7.78;49.43;94831.09;5024215;28;20218;-71
2021/04/05 07:48:33;;;;;;;17.77;8.10;;;;;;;7.71;49.40;94836.03;5018017;28;20222;-71
2021/04/05 07:51:08;;;;;;;10.80;6.53;;;;;;;7.53;50.07;94838.59;5009904;28;20259;-72
2021/04/05 07:53:56;;;;;;;18.83;8.37;;;;;;;8.05;49.05;94848.28;5030468;28;20255;-71
2021/04/05 07:56:29;;;;;;;16.87;9.37;;;;;;;7.93;48.77;94847.69;5028745;28;20241;-71
2021/04/05 07:59:23;;;;;;;15.43;7.90;;;;;;;7.84;49.12;94835.66;5027340;28;20704;-71
2021/04/05 08:02:01;;;;;;;19.03;8.80;;;;;;;7.85;49.32;94834.69;5015235;28;20246;-72
2021/04/05 08:04:48;;;;;;;21.77;7.20;;;;;;;7.44;49.92;94829.16;5021825;28;20669;-72
2021/04/05 08:07:18;;;;;;;20.07;7.53;;;;;;;7.35;49.16;94825.66;5028400;28;20213;-71
2021/04/05 08:09:47;;;;;;;20.80;9.93;;;;;;;7.45;50.46;94830.75;5030609;28;20638;-71
2021/04/05 08:12:31;;;;;;;16.67;9.03;;;;;;;7.60;50.07;94821.56;5029455;28;20198;-72
2021/04/05 08:14:56;;;;;;;27.10;11.50;;;;;;;7.64;49.98;94820.28;5031404;28;20182;-72
2021/04/05 08:17:50;;;;;;;21.73;10.43;;;;;;;7.57;49.43;94828.78;5030579;28;20182;-72
2021/04/05 08:20:27;;;;;;;23.97;10.07;;;;;;;7.51;50.16;94831.94;5031620;28;20304;-72
2021/04/05 08:23:12;;;;;;;19.80;10.97;;;;;;;7.94;49.91;94832.00;5030431;28;20222;-72
2021/04/05 08:25:54;;;;;;;32.60;14.17;;;;;;;7.88;49.87;94834.41;5011687;28;20194;-71
2021/04/05 08:28:25;;;;;;;53.33;21.00;;;;;;;7.86;49.89;94825.97;5011862;28;20642;-71
2021/04/05 08:31:17;;;;;;;18.80;8.93;;;;;;;7.54;49.69;94829.88;5010641;28;20543;-71
2021/04/05 08:34:17;;;;;;;17.07;7.97;;;;;;;7.52;49.26;94829.22;5024883;28;20302;-71
2021/04/05 08:36:49;;;;;;;14.97;8.63;;;;;;;7.80;49.46;94829.16;5020760;28;20184;-71
2021/04/05 08:39:20;;;;;;;18.93;8.40;;;;;;;7.37;50.30;94818.56;5018137;28;20181;-71
2021/04/05 08:42:16;;;;;;;17.43;8.23;;;;;;;7.89;49.31;94820.50;5024771;28;20563;-71
2021/04/05 08:45:02;;;;;;;19.10;8.83;;;;;;;7.92;48.75;94825.38;5011333;28;20571;-71
2021/04/05 08:47:28;;;;;;;17.93;8.50;;;;;;;8.05;48.03;94825.00;5011589;28;20655;-71
2021/04/05 08:49:57;;;;;;;13.53;8.40;;;;;;;7.84;48.10;94822.72;4993898;28;20237;-71
2021/04/05 08:52:25;;;;;;;13.27;8.43;;;;;;;7.89;48.29;94813.56;5010522;28;20215;-71
2021/04/05 08:54:51;;;;;;;16.70;7.63;;;;;;;7.47;48.90;94802.19;5009946;28;20209;-71
2021/04/05 08:57:22;;;;;;;18.20;8.23;;;;;;;7.39;49.52;94821.00;5010507;28;20171;-71
2021/04/05 08:59:55;;;;;;;17.33;8.40;;;;;;;7.70;49.42;94818.91;4995241;28;20180;-71
2021/04/05 09:02:24;;;;;;;23.93;9.33;;;;;;;7.82;48.58;94809.94;5017378;28;20206;-71
2021/04/05 09:04:49;;;;;;;15.77;8.83;;;;;;;8.10;48.36;94802.91;5015757;28;20269;-72
2021/04/05 09:07:27;;;;;;;14.97;7.63;;;;;;;8.18;48.07;94810.72;5028384;28;20710;-71
2021/04/05 09:09:54;;;;;;;18.77;8.30;;;;;;;8.18;46.91;94791.81;5024395;28;20672;-71
2021/04/05 09:12:20;;;;;;;21.50;9.33;;;;;;;8.17;45.92;94790.19;5019047;28;20282;-71
2021/04/05 09:15:09;;;;;;;15.50;8.37;;;;;;;8.13;46.00;94796.63;5014670;28;20280;-71
2021/04/05 09:17:47;;;;;;;18.97;7.43;;;;;;;8.36;45.13;94800.38;5018550;28;20198;-71
2021/04/05 09:20:31;;;;;;;12.03;6.93;;;;;;;8.36;45.33;94784.84;4992149;28;20531;-72
2021/04/05 09:23:05;;;;;;;13.03;6.90;;;;;;;8.15;44.02;94782.59;4994773;28;20583;-72
2021/04/05 09:25:55;;;;;;;11.23;6.53;;;;;;;8.34;43.10;94770.41;5013617;28;20240;-72
2021/04/05 09:28:46;;;;;;;11.80;6.47;;;;;;;8.02;44.18;94766.63;5013973;28;20266;-72
2021/04/05 09:31:36;;;;;;;13.97;7.37;;;;;;;7.86;43.44;94766.50;4997716;28;20221;-73
2021/04/05 09:34:42;;;;;;;14.40;7.30;;;;;;;8.37;41.44;94763.16;5019179;28;20207;-74
2021/04/05 09:37:20;;;;;;;12.73;6.57;;;;;;;8.15;41.05;94756.72;5013831;28;20187;-73
2021/04/05 09:40:21;;;;;;;14.07;6.63;;;;;;;8.55;41.52;94751.94;5026428;28;20186;-73
2021/04/05 09:43:24;;;;;;;11.03;5.23;;;;;;;8.95;40.69;94766.84;5002506;28;20212;-73
2021/04/05 09:46:34;;;;;;;11.47;6.03;;;;;;;8.33;39.90;94758.44;5026725;28;20255;-73
2021/04/05 09:49:08;;;;;;;11.07;5.47;;;;;;;8.62;39.96;94760.72;5014327;28;20574;-75
2021/04/05 09:51:43;;;;;;;13.23;5.73;;;;;;;8.62;39.45;94751.19;5027639;28;20194;-74
2021/04/05 09:54:21;;;;;;;11.93;6.10;;;;;;;8.66;39.21;94747.34;5023040;28;20283;-74
2021/04/05 09:56:50;;;;;;;11.63;6.23;;;;;;;8.60;39.36;94740.19;5025423;28;20182;-75
2021/04/05 09:59:21;;;;;;;14.20;6.63;;;;;;;8.62;40.17;94733.06;5028600;28;20182;-74
2021/04/05 10:01:51;;;;;;;11.53;5.80;;;;;;;8.92;39.73;94728.31;5014776;28;20183;-75
2021/04/05 10:04:21;;;;;;;12.23;5.40;;;;;;;9.27;39.15;94740.22;5025588;28;20210;-73
2021/04/05 10:06:48;;;;;;;17.43;6.33;;;;;;;9.26;39.11;94746.38;5031401;28;20203;-75
2021/04/05 10:09:13;;;;;;;9.63;5.03;;;;;;;9.09;39.54;94735.16;5026618;28;20248;-74
2021/04/05 10:11:41;;;;;;;9.03;5.13;;;;;;;9.40;39.23;94734.59;5032378;28;20205;-75
2021/04/05 10:14:09;;;;;;;16.30;6.07;;;;;;;9.25;38.91;94735.19;5013232;28;20233;-75
2021/04/05 10:16:37;;;;;;;15.57;6.93;;;;;;;9.06;39.15;94725.94;5026091;28;20274;-74
2021/04/05 10:19:07;;;;;;;9.27;6.10;;;;;;;9.32;39.20;94725.81;5018103;28;20634;-73
2021/04/05 10:21:34;;;;;;;11.97;6.77;;;;;;;9.36;39.76;94715.94;5032525;28;20190;-75
2021/04/05 10:24:01;;;;;;;11.00;6.40;;;;;;;9.43;39.60;94718.72;5032518;28;20198;-74
2021/04/05 10:26:29;;;;;;;12.80;6.33;;;;;;;9.60;39.90;94718.56;5015817;28;20214;-74
2021/04/05 10:28:54;;;;;;;11.80;6.30;;;;;;;9.78;39.01;94709.81;5015835;28;20197;-74
2021/04/05 10:31:22;;;;;;;9.17;5.93;;;;;;;10.02;39.74;94704.59;5028851;28;20205;-74
2021/04/05 10:33:50;;;;;;;12.13;6.20;;;;;;;10.27;39.21;94705.41;5030314;28;20909;-74
2021/04/05 10:36:21;;;;;;;14.23;6.20;;;;;;;9.82;40.24;94706.75;5031999;28;20257;-74
2021/04/05 10:38:47;;;;;;;12.27;6.20;;;;;;;9.79;40.99;94707.03;5014590;28;20187;-74
2021/04/05 10:41:17;;;;;;;15.00;6.80;;;;;;;10.38;40.79;94709.41;5034940;28;20240;-74
2021/04/05 10:43:57;;;;;;;12.13;6.87;;;;;;;10.32;40.79;94710.88;5010472;28;20214;-74
2021/04/05 10:46:29;;;;;;;12.40;6.80;;;;;;;10.33;40.82;94709.91;5012074;28;20194;-74
2021/04/05 10:48:58;;;;;;;16.40;7.87;;;;;;;10.38;40.10;94705.03;5012517;28;20180;-74
2021/04/05 10:51:27;;;;;;;13.03;6.77;;;;;;;10.58;40.64;94704.66;5015535;28;20549;-74
2021/04/05 10:54:07;;;;;;;11.27;6.97;;;;;;;10.45;41.31;94702.59;5028668;28;20207;-74
2021/04/05 10:56:35;;;;;;;17.20;8.23;;;;;;;10.42;41.48;94693.38;5020035;28;20272;-73
2021/04/05 10:59:12;;;;;;;21.33;8.20;;;;;;;10.45;40.49;94700.00;5027535;28;20179;-74
2021/04/05 11:01:44;;;;;;;16.23;7.47;;;;;;;10.31;41.59;94700.69;5020088;28;20961;-75
2021/04/05 11:04:11;;;;;;;11.23;6.53;;;;;;;10.53;41.63;94704.34;5031701;28;20203;-74
2021/04/05 11:06:38;;;;;;;12.57;7.27;;;;;;;10.20;41.71;94694.84;5032900;28;20194;-74
2021/04/05 11:09:05;;;;;;;16.37;8.70;;;;;;;10.15;41.59;94693.69;5015083;28;20182;-74
2021/04/05 11:11:31;;;;;;;16.10;8.17;;;;;;;10.05;41.63;94695.69;5032951;28;20182;-74
2021/04/05 11:14:03;;;;;;;17.70;9.23;;;;;;;10.41;41.54;94689.13;5031379;28;20254;-74
2021/04/05 11:16:29;;;;;;;18.30;8.67;;;;;;;10.35;41.59;94681.22;5048245;28;20197;-75
2021/04/05 11:19:01;;;;;;;13.37;8.10;;;;;;;9.91;42.24;94690.19;5048271;28;20182;-74
2021/04/05 11:21:43;;;;;;;12.07;7.27;;;;;;;9.99;42.32;94684.19;5031820;28;20186;-74
2021/04/05 11:24:10;;;;;;;16.03;7.43;;;;;;;10.00;42.00;94688.41;5015490;28;20268;-74
2021/04/05 11:26:36;;;;;;;13.60;7.23;;;;;;;9.74;42.55;94687.78;5032571;28;20198;-74
2021/04/05 11:29:07;;;;;;;15.47;8.13;;;;;;;9.40;43.14;94686.16;5031461;28;20525;-74
2021/04/05 11:31:44;;;;;;;13.40;7.97;;;;;;;9.46;43.77;94682.13;5027698;28;20217;-74
2021/04/05 11:34:09;;;;;;;16.33;8.10;;;;;;;9.50;44.03;94692.00;5011532;28;20269;-74
2021/04/05 11:36:47;;;;;;;17.10;8.93;;;;;;;9.52;44.15;94689.22;5011493;28;20639;-74
2021/04/05 11:39:15;;;;;;;13.53;9.33;;;;;;;9.15;45.86;94681.91;5011505;28;20181;-74
2021/04/05 11:41:44;;;;;;;18.30;9.50;;;;;;;9.18;46.56;94687.56;5011458;28;20274;-74
2021/04/05 11:44:10;;;;;;;19.23;9.93;;;;;;;9.10;47.68;94687.59;5011230;28;20199;-74
2021/04/05 11:46:38;;;;;;;21.63;10.80;;;;;;;9.08;48.25;94674.78;4994564;28;20290;-74
2021/04/05 11:49:08;;;;;;;21.87;11.90;;;;;;;9.04;49.01;94680.44;5022056;28;20187;-74
2021/04/05 11:51:55;;;;;;;17.93;10.37;;;;;;;9.08;48.95;94677.38;5042384;28;20647;-75
2021/04/05 11:54:29;;;;;;;21.43;11.10;;;;;;;9.04;49.68;94677.88;5030765;28;20228;-76
2021/04/05 11:56:55;;;;;;;17.67;10.87;;;;;;;8.98;50.20;94689.66;5030501;28;20209;-75
2021/04/05 11:59:27;;;;;;;19.83;11.60;;;;;;;9.08;49.81;94677.38;5030699;28;20186;-74